createdAt,value
2018-09-04T00:01:50.343Z,27.52
2018-09-04T00:04:24.584Z,23.23
2018-09-04T00:06:58.881Z,23.50
2018-09-04T00:09:33.116Z,23.53
2018-09-04T00:12:07.486Z,24.10
2018-09-04T00:14:41.661Z,23.67
2018-09-04T00:17:16.061Z,23.80
2018-09-04T00:19:50.269Z,25.90
2018-09-04T00:22:24.547Z,25.87
2018-09-04T00:24:58.806Z,25.43
2018-09-04T00:27:32.981Z,25.17
2018-09-04T00:30:07.738Z,26.03
2018-09-04T00:32:41.985Z,25.53
2018-09-04T00:35:16.134Z,24.63
2018-09-04T00:37:50.287Z,25.20
2018-09-04T00:40:24.437Z,25.33
2018-09-04T00:42:58.561Z,27.10
2018-09-04T00:45:32.898Z,25.23
2018-09-04T00:48:07.258Z,25.13
2018-09-04T00:50:41.592Z,25.37
2018-09-04T00:53:15.930Z,24.60
2018-09-04T00:55:50.299Z,25.60
2018-09-04T00:58:24.558Z,25.07
2018-09-04T01:00:58.893Z,24.40
2018-09-04T01:03:33.177Z,24.10
2018-09-04T01:06:07.466Z,24.70
2018-09-04T01:08:41.771Z,24.37
2018-09-04T01:11:16.221Z,24.73
2018-09-04T01:13:50.474Z,24.13
2018-09-04T01:16:24.756Z,23.80
2018-09-04T01:18:59.182Z,23.97
2018-09-04T01:21:33.467Z,23.87
2018-09-04T01:24:07.738Z,23.43
2018-09-04T01:26:42.058Z,23.97
2018-09-04T01:29:16.249Z,23.87
2018-09-04T01:31:50.578Z,23.20
2018-09-04T01:34:24.959Z,23.57
2018-09-04T01:36:59.287Z,24.10
2018-09-04T01:39:33.546Z,23.27
2018-09-04T01:42:07.785Z,22.40
2018-09-04T01:44:42.127Z,22.77
2018-09-04T01:47:16.421Z,22.87
2018-09-04T01:49:50.830Z,22.17
2018-09-04T01:52:25.155Z,22.23
2018-09-04T01:54:59.496Z,21.57
2018-09-04T01:57:33.694Z,21.50
2018-09-04T02:00:08.705Z,21.90
2018-09-04T02:02:42.969Z,22.37
2018-09-04T02:05:17.274Z,21.30
2018-09-04T02:07:51.570Z,21.37
2018-09-04T02:10:25.833Z,21.27
2018-09-04T02:13:00.179Z,20.47
2018-09-04T02:15:34.478Z,20.47
2018-09-04T02:18:08.889Z,20.67
2018-09-04T02:20:43.049Z,21.13
2018-09-04T02:23:17.530Z,18.67
2018-09-04T02:25:51.692Z,20.97
2018-09-04T02:28:26.082Z,20.50
2018-09-04T02:31:00.682Z,20.13
2018-09-04T02:33:35.015Z,19.60
2018-09-04T02:36:09.426Z,20.63
2018-09-04T02:38:43.772Z,20.20
2018-09-04T02:41:18.195Z,19.90
2018-09-04T02:43:52.461Z,18.87
2018-09-04T02:46:26.622Z,19.40
2018-09-04T02:49:00.893Z,17.93
2018-09-04T02:51:35.417Z,18.20
2018-09-04T02:54:09.731Z,18.37
2018-09-04T02:56:44.013Z,17.87
2018-09-04T02:59:18.289Z,16.37
2018-09-04T03:01:52.653Z,16.80
2018-09-04T03:04:26.913Z,15.93
2018-09-04T03:07:01.221Z,16.13
2018-09-04T03:09:35.539Z,16.80
2018-09-04T03:12:09.706Z,14.30
2018-09-04T03:14:44.086Z,13.63
2018-09-04T03:17:18.315Z,13.63
2018-09-04T03:19:52.702Z,13.23
2018-09-04T03:22:27.095Z,13.83
2018-09-04T03:25:02.026Z,13.40
2018-09-04T03:27:36.309Z,13.10
2018-09-04T03:30:10.556Z,13.23
2018-09-04T03:32:45.006Z,12.70
2018-09-04T03:35:19.227Z,12.77
2018-09-04T03:37:53.700Z,12.37
2018-09-04T03:40:28.072Z,12.13
2018-09-04T03:43:02.518Z,12.13
2018-09-04T03:45:36.824Z,11.67
2018-09-04T03:48:11.259Z,12.37
2018-09-04T03:50:45.438Z,11.50
2018-09-04T03:53:19.849Z,11.63
2018-09-04T03:55:54.258Z,11.83
2018-09-04T03:58:28.689Z,11.67
2018-09-04T04:01:03.040Z,11.27
2018-09-04T04:03:37.189Z,11.77
2018-09-04T04:06:11.610Z,12.15
2018-09-04T04:08:46.059Z,11.80
2018-09-04T04:11:20.330Z,10.23
2018-09-04T04:13:54.698Z,10.83
2018-09-04T04:16:28.882Z,11.17
2018-09-04T04:19:03.228Z,11.30
2018-09-04T04:21:37.557Z,10.03
2018-09-04T04:24:11.790Z,11.20
2018-09-04T04:26:46.042Z,10.97
2018-09-04T04:29:20.271Z,10.20
2018-09-04T04:31:54.647Z,10.77
2018-09-04T04:34:28.976Z,10.70
2018-09-04T04:37:03.130Z,10.63
2018-09-04T04:39:37.409Z,10.37
2018-09-04T04:42:11.690Z,10.63
2018-09-04T04:44:45.946Z,10.47
2018-09-04T04:47:24.554Z,10.97
2018-09-04T04:49:59.182Z,11.60
2018-09-04T04:52:33.478Z,10.13
2018-09-04T04:55:07.827Z,11.23
2018-09-04T04:57:41.981Z,10.37
2018-09-04T05:00:16.197Z,10.57
2018-09-04T05:02:50.482Z,10.73
2018-09-04T05:05:24.771Z,10.30
2018-09-04T05:07:59.059Z,10.53
2018-09-04T05:10:33.503Z,10.60
2018-09-04T05:13:07.766Z,10.53
2018-09-04T05:15:42.066Z,10.90
2018-09-04T05:18:16.375Z,10.87
2018-09-04T05:20:50.642Z,10.50
2018-09-04T05:23:24.955Z,11.00
2018-09-04T05:25:59.329Z,11.03
2018-09-04T05:28:33.665Z,10.30
2018-09-04T05:31:08.018Z,10.93
2018-09-04T05:33:43.403Z,9.40
2018-09-04T05:36:17.534Z,9.57
2018-09-04T05:38:51.890Z,9.73
2018-09-04T05:41:26.386Z,9.47
2018-09-04T05:44:01.233Z,10.10
2018-09-04T05:46:38.154Z,9.03
2018-09-04T05:49:13.814Z,9.13
2018-09-04T05:51:48.108Z,10.00
2018-09-04T05:54:22.345Z,9.27
2018-09-04T05:56:56.650Z,10.10
2018-09-04T05:59:30.958Z,9.83
2018-09-04T06:02:05.140Z,9.57
2018-09-04T06:04:39.346Z,9.97
2018-09-04T06:07:13.627Z,9.70
2018-09-04T06:09:47.859Z,9.73
2018-09-04T06:12:22.266Z,9.53
2018-09-04T06:14:56.548Z,9.17
2018-09-04T06:17:30.874Z,9.20
2018-09-04T06:20:05.447Z,9.40
2018-09-04T06:22:39.618Z,9.43
2018-09-04T06:25:13.919Z,8.47
2018-09-04T06:27:48.251Z,9.00
2018-09-04T06:30:22.678Z,9.17
2018-09-04T06:32:57.054Z,9.60
2018-09-04T06:35:31.350Z,9.77
2018-09-04T06:38:05.827Z,10.00
2018-09-04T06:40:40.042Z,9.33
2018-09-04T06:43:14.331Z,9.50
2018-09-04T06:45:48.626Z,8.80
2018-09-04T06:48:22.802Z,9.03
2018-09-04T06:50:57.082Z,8.70
2018-09-04T06:53:31.496Z,9.33
2018-09-04T06:56:06.590Z,9.40
2018-09-04T06:58:40.778Z,9.87
2018-09-04T07:01:15.130Z,9.80
2018-09-04T07:03:49.518Z,9.80
2018-09-04T07:06:23.809Z,9.50
2018-09-04T07:08:58.166Z,10.13
2018-09-04T07:11:32.502Z,9.20
2018-09-04T07:14:06.769Z,10.03
2018-09-04T07:16:41.445Z,9.83
2018-09-04T07:19:18.301Z,9.93
2018-09-04T07:21:53.438Z,10.10
2018-09-04T07:24:27.660Z,9.60
2018-09-04T07:27:02.082Z,9.07
2018-09-04T07:29:36.382Z,9.90
2018-09-04T07:32:10.691Z,9.60
2018-09-04T07:34:44.974Z,10.20
2018-09-04T07:37:19.389Z,11.03
2018-09-04T07:39:53.739Z,10.40
2018-09-04T07:42:27.993Z,10.50
2018-09-04T07:45:02.306Z,11.43
2018-09-04T07:47:36.613Z,11.67
2018-09-04T07:50:11.354Z,10.50
2018-09-04T07:52:45.571Z,10.40
2018-09-04T07:55:19.778Z,10.53
2018-09-04T07:57:54.041Z,10.37
2018-09-04T08:00:28.199Z,10.07
2018-09-04T08:03:02.585Z,11.10
2018-09-04T08:05:36.841Z,10.77
2018-09-04T08:08:11.111Z,11.43
2018-09-04T08:10:45.426Z,11.40
2018-09-04T08:13:19.646Z,11.40
2018-09-04T08:15:53.932Z,11.20
2018-09-04T08:18:28.355Z,11.63
2018-09-04T08:21:02.622Z,12.63
2018-09-04T08:23:36.999Z,11.87
2018-09-04T08:26:11.285Z,12.67
2018-09-04T08:28:45.455Z,11.60
2018-09-04T08:31:19.876Z,12.20
2018-09-04T08:33:54.112Z,12.03
2018-09-04T08:36:28.594Z,11.67
2018-09-04T08:39:03.224Z,11.90
2018-09-04T08:41:37.502Z,12.33
2018-09-04T08:44:11.628Z,11.53
2018-09-04T08:46:45.921Z,12.03
2018-09-04T08:49:20.326Z,12.70
2018-09-04T08:51:54.764Z,12.90
2018-09-04T08:54:28.979Z,12.73
2018-09-04T08:57:03.319Z,12.20
2018-09-04T08:59:37.658Z,11.80
2018-09-04T09:02:11.866Z,12.63
2018-09-04T09:04:46.082Z,13.00
2018-09-04T09:07:20.689Z,12.10
2018-09-04T09:09:55.067Z,12.13
2018-09-04T09:12:29.511Z,12.93
2018-09-04T09:15:03.701Z,12.53
2018-09-04T09:17:37.938Z,12.60
2018-09-04T09:20:12.159Z,12.63
2018-09-04T09:22:46.338Z,12.60
2018-09-04T09:25:20.806Z,12.20
2018-09-04T09:27:55.042Z,11.67
2018-09-04T09:30:29.355Z,12.43
2018-09-04T09:33:03.731Z,11.73
2018-09-04T09:35:38.041Z,9.87
2018-09-04T09:38:12.363Z,10.57
2018-09-04T09:40:46.641Z,10.77
2018-09-04T09:43:21.074Z,10.70
2018-09-04T09:45:55.350Z,10.23
2018-09-04T09:48:35.102Z,10.67
2018-09-04T09:51:10.406Z,10.67
2018-09-04T09:53:44.753Z,9.27
2018-09-04T09:56:19.130Z,10.50
2018-09-04T09:58:53.353Z,9.77
2018-09-04T10:01:30.661Z,9.40
2018-09-04T10:04:06.425Z,9.57
2018-09-04T10:06:40.591Z,9.87
2018-09-04T10:09:14.910Z,10.07
2018-09-04T10:11:49.201Z,10.03
2018-09-04T10:14:23.375Z,8.80
2018-09-04T10:16:57.581Z,9.37
2018-09-04T10:19:32.246Z,9.50
2018-09-04T10:22:06.499Z,8.93
2018-09-04T10:24:40.778Z,9.60
2018-09-04T10:27:15.207Z,9.50
2018-09-04T10:29:49.618Z,9.80
2018-09-04T10:32:23.973Z,10.93
2018-09-04T10:34:58.399Z,8.37
2018-09-04T10:37:32.682Z,9.13
2018-09-04T10:40:42.554Z,8.80
2018-09-04T10:43:16.818Z,9.27
2018-09-04T10:45:56.419Z,8.23
2018-09-04T10:48:30.896Z,9.97
2018-09-04T10:51:05.624Z,9.47
2018-09-04T10:53:39.885Z,8.17
2018-09-04T10:56:14.214Z,8.13
2018-09-04T10:58:48.405Z,8.87
2018-09-04T11:01:22.734Z,9.03
2018-09-04T11:03:57.283Z,9.13
2018-09-04T11:06:31.675Z,9.60
2018-09-04T11:09:09.352Z,9.37
2018-09-04T11:11:43.635Z,8.57
2018-09-04T11:14:17.965Z,8.97
2018-09-04T11:16:52.402Z,8.30
2018-09-04T11:19:26.769Z,8.60
2018-09-04T11:22:01.186Z,8.87
2018-09-04T11:24:35.618Z,8.67
2018-09-04T11:27:09.969Z,8.50
2018-09-04T11:29:44.126Z,10.17
2018-09-04T11:32:18.446Z,9.03
2018-09-04T11:34:52.663Z,9.33
2018-09-04T11:37:27.027Z,9.43
2018-09-04T11:40:01.322Z,9.00
2018-09-04T11:42:35.661Z,9.73
2018-09-04T11:45:10.508Z,10.00
2018-09-04T11:47:44.860Z,8.83
2018-09-04T11:50:19.158Z,9.50
2018-09-04T11:52:53.405Z,9.10
2018-09-04T11:55:27.758Z,9.47
2018-09-04T11:58:02.067Z,9.13
2018-09-04T12:00:38.554Z,9.47
2018-09-04T12:03:14.094Z,9.43
2018-09-04T12:05:48.474Z,9.33
2018-09-04T12:08:22.647Z,9.13
2018-09-04T12:10:56.983Z,9.87
2018-09-04T12:13:31.982Z,9.57
2018-09-04T12:16:06.195Z,9.10
2018-09-04T12:18:40.423Z,8.50
2018-09-04T12:21:14.783Z,9.33
2018-09-04T12:23:49.029Z,9.43
2018-09-04T12:26:23.218Z,9.20
2018-09-04T12:28:57.564Z,9.77
2018-09-04T12:31:32.182Z,9.40
2018-09-04T12:34:06.485Z,9.47
2018-09-04T12:36:40.712Z,9.87
2018-09-04T12:39:15.010Z,10.73
2018-09-04T12:41:49.985Z,9.17
2018-09-04T12:44:24.263Z,10.27
2018-09-04T12:46:58.477Z,9.40
2018-09-04T12:49:32.770Z,9.13
2018-09-04T12:52:07.160Z,9.77
2018-09-04T12:54:41.479Z,10.10
2018-09-04T12:57:15.734Z,9.40
2018-09-04T12:59:50.075Z,8.83
2018-09-04T13:02:24.246Z,9.67
2018-09-04T13:04:58.525Z,9.10
2018-09-04T13:07:32.786Z,9.73
2018-09-04T13:10:07.078Z,9.57
2018-09-04T13:12:41.290Z,10.03
2018-09-04T13:15:16.040Z,10.30
2018-09-04T13:17:50.378Z,10.03
2018-09-04T13:20:24.759Z,9.80
2018-09-04T13:22:59.058Z,10.73
2018-09-04T13:25:33.336Z,10.37
2018-09-04T13:28:07.927Z,10.43
2018-09-04T13:30:42.253Z,10.17
2018-09-04T13:33:16.676Z,10.20
2018-09-04T13:35:50.958Z,10.17
2018-09-04T13:38:25.214Z,9.90
2018-09-04T13:41:04.962Z,9.60
2018-09-04T13:43:39.865Z,10.17
2018-09-04T13:46:14.087Z,9.80
2018-09-04T13:48:48.218Z,9.30
2018-09-04T13:51:22.419Z,9.80
2018-09-04T13:53:56.794Z,9.93
2018-09-04T13:56:31.072Z,10.00
2018-09-04T13:59:05.450Z,9.67
2018-09-04T14:01:39.703Z,9.83
2018-09-04T14:04:13.956Z,9.13
2018-09-04T14:06:48.330Z,10.43
2018-09-04T14:09:22.594Z,9.20
2018-09-04T14:11:56.863Z,8.97
2018-09-04T14:14:31.159Z,9.77
2018-09-04T14:17:07.623Z,10.03
2018-09-04T14:19:41.918Z,10.07
2018-09-04T14:22:16.618Z,9.60
2018-09-04T14:24:50.998Z,8.60
2018-09-04T14:27:25.450Z,9.37
2018-09-04T14:30:16.418Z,9.33
2018-09-04T14:32:33.970Z,9.20
2018-09-04T14:35:08.575Z,8.47
2018-09-04T14:37:42.950Z,10.13
2018-09-04T14:40:17.101Z,8.90
2018-09-04T14:42:51.701Z,8.90
2018-09-04T14:45:25.906Z,10.17
2018-09-04T14:48:00.299Z,9.50
2018-09-04T14:50:34.578Z,9.40
2018-09-04T14:53:09.222Z,9.13
2018-09-04T14:55:43.370Z,8.90
2018-09-04T14:58:17.797Z,8.10
2018-09-04T15:00:51.949Z,8.40
2018-09-04T15:03:26.325Z,8.17
2018-09-04T15:06:00.571Z,8.73
2018-09-04T15:08:34.883Z,8.40
2018-09-04T15:11:09.202Z,9.10
2018-09-04T15:13:43.510Z,9.00
2018-09-04T15:16:17.932Z,9.70
2018-09-04T15:18:52.237Z,8.63
2018-09-04T15:21:26.421Z,9.87
2018-09-04T15:24:00.698Z,9.83
2018-09-04T15:26:34.907Z,10.40
2018-09-04T15:29:09.195Z,9.00
2018-09-04T15:31:43.602Z,8.90
2018-09-04T15:34:17.949Z,9.13
2018-09-04T15:36:52.246Z,8.47
2018-09-04T15:39:26.470Z,9.27
2018-09-04T15:42:00.634Z,8.73
2018-09-04T15:44:34.902Z,9.83
2018-09-04T15:47:09.334Z,9.70
2018-09-04T15:49:47.582Z,10.80
2018-09-04T15:52:21.982Z,10.20
2018-09-04T15:54:56.390Z,10.27
2018-09-04T15:57:30.790Z,9.33
2018-09-04T16:00:05.456Z,9.73
2018-09-04T16:02:39.650Z,9.90
2018-09-04T16:05:14.101Z,9.87
2018-09-04T16:07:48.401Z,9.13
2018-09-04T16:10:22.860Z,9.23
2018-09-04T16:12:57.030Z,9.33
2018-09-04T16:15:31.292Z,9.10
2018-09-04T16:18:05.642Z,8.63
2018-09-04T16:20:39.970Z,9.53
2018-09-04T16:23:14.168Z,9.30
2018-09-04T16:25:48.463Z,9.53
2018-09-04T16:28:22.706Z,9.13
2018-09-04T16:30:57.092Z,9.43
2018-09-04T16:33:31.409Z,9.07
2018-09-04T16:36:05.993Z,9.60
2018-09-04T16:38:40.134Z,9.07
2018-09-04T16:41:14.454Z,9.47
2018-09-04T16:43:48.747Z,9.10
2018-09-04T16:46:22.997Z,10.03
2018-09-04T16:48:57.330Z,9.43
2018-09-04T16:51:31.594Z,8.80
2018-09-04T16:54:05.918Z,9.30
2018-09-04T16:56:40.182Z,8.67
2018-09-04T16:59:14.462Z,9.50
2018-09-04T17:01:48.782Z,8.67
2018-09-04T17:04:23.175Z,9.30
2018-09-04T17:06:57.478Z,8.93
2018-09-04T17:09:31.666Z,8.80
2018-09-04T17:12:05.943Z,8.07
2018-09-04T17:14:40.342Z,8.90
2018-09-04T17:17:14.602Z,8.43
2018-09-04T17:19:48.934Z,9.10
2018-09-04T17:22:23.230Z,9.00
2018-09-04T17:24:57.634Z,8.80
2018-09-04T17:27:31.919Z,8.60
2018-09-04T17:30:06.473Z,8.50
2018-09-04T17:32:40.754Z,8.80
2018-09-04T17:35:15.202Z,8.53
2018-09-04T17:37:49.526Z,8.70
2018-09-04T17:40:23.899Z,8.57
2018-09-04T17:42:58.085Z,9.13
2018-09-04T17:45:32.414Z,8.67
2018-09-04T17:48:06.819Z,8.90
2018-09-04T17:50:41.131Z,8.50
2018-09-04T17:53:15.419Z,8.93
2018-09-04T17:55:49.675Z,8.40
2018-09-04T17:58:23.950Z,9.27
2018-09-04T18:00:58.211Z,8.63
2018-09-04T18:03:32.560Z,7.93
2018-09-04T18:06:06.722Z,8.80
2018-09-04T18:08:41.022Z,8.17
2018-09-04T18:11:15.559Z,8.77
2018-09-04T18:13:49.906Z,8.43
2018-09-04T18:16:24.170Z,8.43
2018-09-04T18:18:58.607Z,8.27
2018-09-04T18:21:32.837Z,8.53
2018-09-04T18:24:07.273Z,8.33
2018-09-04T18:26:41.575Z,8.80
2018-09-04T18:29:16.222Z,7.97
2018-09-04T18:31:50.526Z,8.67
2018-09-04T18:34:24.921Z,8.07
2018-09-04T18:36:59.370Z,7.93
2018-09-04T18:39:33.686Z,8.03
2018-09-04T18:42:07.866Z,7.97
2018-09-04T18:44:42.091Z,8.03
2018-09-04T18:47:16.317Z,7.87
2018-09-04T18:49:50.766Z,8.40
2018-09-04T18:52:25.055Z,7.90
2018-09-04T18:54:59.822Z,7.63
2018-09-04T18:57:33.998Z,8.53
2018-09-04T19:00:11.118Z,7.20
2018-09-04T19:02:45.967Z,7.87
2018-09-04T19:05:20.195Z,7.80
2018-09-04T19:07:54.489Z,7.43
2018-09-04T19:10:28.994Z,7.83
2018-09-04T19:13:03.714Z,8.63
2018-09-04T19:15:38.007Z,7.90
2018-09-04T19:18:12.280Z,8.57
2018-09-04T19:20:46.530Z,7.47
2018-09-04T19:23:21.031Z,7.37
2018-09-04T19:25:55.310Z,7.83
2018-09-04T19:28:29.699Z,7.43
2018-09-04T19:31:03.983Z,7.87
2018-09-04T19:33:38.345Z,8.27
2018-09-04T19:36:12.607Z,8.10
2018-09-04T19:38:46.945Z,8.47
2018-09-04T19:41:21.209Z,8.40
2018-09-04T19:43:55.468Z,7.90
2018-09-04T19:46:29.771Z,8.10
2018-09-04T19:49:04.196Z,8.47
2018-09-04T19:51:38.445Z,7.87
2018-09-04T19:54:12.719Z,8.43
2018-09-04T19:56:47.037Z,8.20
2018-09-04T19:59:21.393Z,8.10
2018-09-04T20:01:55.645Z,8.00
2018-09-04T20:04:30.018Z,8.00
2018-09-04T20:07:04.329Z,8.33
2018-09-04T20:09:38.581Z,8.17
2018-09-04T20:12:12.793Z,8.90
2018-09-04T20:14:47.092Z,8.87
2018-09-04T20:17:21.702Z,8.83
2018-09-04T20:19:56.167Z,8.53
2018-09-04T20:22:30.486Z,8.13
2018-09-04T20:25:04.822Z,9.03
2018-09-04T20:27:39.163Z,8.13
2018-09-04T20:30:13.447Z,8.97
2018-09-04T20:32:47.763Z,8.83
2018-09-04T20:35:22.268Z,8.97
2018-09-04T20:37:56.531Z,8.53
2018-09-04T20:40:30.962Z,9.50
2018-09-04T20:43:05.238Z,8.77
2018-09-04T20:45:39.554Z,9.27
2018-09-04T20:48:13.749Z,8.83
2018-09-04T20:50:48.415Z,8.17
2018-09-04T20:53:22.777Z,9.53
2018-09-04T20:55:56.935Z,9.23
2018-09-04T20:58:42.734Z,9.20
2018-09-04T21:01:28.413Z,8.67
2018-09-04T21:04:13.981Z,9.47
2018-09-04T21:06:49.662Z,9.00
2018-09-04T21:09:35.627Z,9.07
2018-09-04T21:12:10.268Z,8.63
2018-09-04T21:14:44.457Z,8.90
2018-09-04T21:17:18.850Z,8.40
2018-09-04T21:19:53.035Z,9.17
2018-09-04T21:22:27.362Z,9.47
2018-09-04T21:25:01.612Z,8.33
2018-09-04T21:27:35.838Z,9.47
2018-09-04T21:30:10.242Z,9.23
2018-09-04T21:32:44.503Z,8.80
2018-09-04T21:35:18.812Z,8.67
2018-09-04T21:37:53.182Z,9.03
2018-09-04T21:40:27.383Z,9.20
2018-09-04T21:43:01.765Z,8.63
2018-09-04T21:45:36.048Z,8.67
2018-09-04T21:48:10.233Z,9.17
2018-09-04T21:50:44.447Z,8.67
2018-09-04T21:53:18.921Z,8.73
2018-09-04T21:55:53.195Z,9.00
2018-09-04T21:58:27.644Z,7.67
2018-09-04T22:01:01.892Z,8.30
2018-09-04T22:03:36.318Z,8.70
2018-09-04T22:06:10.634Z,8.43
2018-09-04T22:08:45.257Z,8.07
2018-09-04T22:11:19.622Z,7.40
2018-09-04T22:13:53.883Z,7.90
2018-09-04T22:16:28.306Z,7.83
2018-09-04T22:19:02.594Z,7.43
2018-09-04T22:21:36.871Z,7.67
2018-09-04T22:24:11.282Z,7.17
2018-09-04T22:26:45.672Z,7.20
2018-09-04T22:29:19.959Z,6.80
2018-09-04T22:31:54.268Z,6.63
2018-09-04T22:34:28.637Z,7.07
2018-09-04T22:37:03.799Z,6.40
2018-09-04T22:39:37.955Z,6.77
2018-09-04T22:42:12.190Z,6.93
2018-09-04T22:44:46.410Z,6.50
2018-09-04T22:47:20.793Z,6.60
2018-09-04T22:50:00.558Z,6.43
2018-09-04T22:52:34.742Z,6.17
2018-09-04T22:55:11.055Z,7.27
2018-09-04T22:57:45.243Z,6.43
2018-09-04T23:00:19.619Z,6.60
2018-09-04T23:02:53.847Z,6.00
2018-09-04T23:05:28.130Z,6.90
2018-09-04T23:08:02.309Z,6.17
2018-09-04T23:10:36.502Z,6.10
2018-09-04T23:13:10.838Z,6.67
2018-09-04T23:15:45.186Z,5.67
2018-09-04T23:18:19.540Z,5.70
2018-09-04T23:20:53.929Z,6.00
2018-09-04T23:23:28.326Z,6.13
2018-09-04T23:26:02.754Z,5.30
2018-09-04T23:28:37.082Z,6.07
2018-09-04T23:31:11.515Z,5.80
2018-09-04T23:33:45.893Z,5.73
2018-09-04T23:36:20.018Z,6.13
2018-09-04T23:38:54.526Z,5.73
2018-09-04T23:41:28.697Z,6.03
2018-09-04T23:44:03.093Z,5.67
2018-09-04T23:46:37.340Z,6.33
2018-09-04T23:49:11.646Z,5.80
2018-09-04T23:51:45.820Z,5.50
2018-09-04T23:54:19.982Z,5.43
2018-09-04T23:56:54.369Z,6.00
2018-09-04T23:59:28.628Z,5.63
